Time,TemperatureF,DewpointF,PressureIn,WindDirection,WindDirectionDegrees,WindSpeedMPH,WindSpeedGustMPH,Humidity,HourlyPrecipIn,Conditions,Clouds,dailyrainin,SoftwareType,DateUTC
2013-04-03 00:00:00,34.4,16.8,30.01,WSW,250,7.0,12.0,48,0.00,,---,0.00,VWS V14.01,2013-04-03 04:00:00,
2013-04-03 00:01:00,34.3,16.2,30.01,West,281,3.0,9.0,47,0.00,,---,0.00,VWS V14.01,2013-04-03 04:01:00,
2013-04-03 00:06:00,34.3,16.7,30.01,West,260,1.0,10.0,48,0.00,,---,0.00,VWS V14.01,2013-04-03 04:06:00,
2013-04-03 00:11:00,34.3,16.7,30.01,West,265,4.0,6.0,48,0.00,,---,0.00,VWS V14.01,2013-04-03 04:11:00,
2013-04-03 00:16:00,34.2,17.0,30.01,WSW,246,1.0,10.0,49,0.00,,---,0.00,VWS V14.01,2013-04-03 04:16:00,
2013-04-03 00:21:00,34.1,17.0,30.01,WSW,256,6.0,9.0,49,0.00,,---,0.00,VWS V14.01,2013-04-03 04:21:00,
2013-04-03 00:26:00,34.0,16.9,30.01,West,275,0.0,12.0,49,0.00,,---,0.00,VWS V14.01,2013-04-03 04:26:00,
2013-04-03 00:31:00,34.0,17.3,30.02,West,267,7.0,10.0,50,0.00,,---,0.00,VWS V14.01,2013-04-03 04:31:00,
2013-04-03 00:36:00,33.9,17.2,30.02,West,260,3.0,9.0,50,0.00,,---,0.00,VWS V14.01,2013-04-03 04:36:00,
2013-04-03 00:42:00,33.8,18.5,30.02,WSW,253,7.0,10.0,53,0.00,,---,0.00,VWS V14.01,2013-04-03 04:42:00,
2013-04-03 00:47:00,33.8,17.1,30.02,WSW,257,3.0,11.0,50,0.00,,---,0.00,VWS V14.01,2013-04-03 04:47:00,
2013-04-03 00:52:00,33.8,17.6,30.02,West,270,5.0,9.0,51,0.00,,---,0.00,VWS V14.01,2013-04-03 04:52:00,
2013-04-03 00:57:00,33.8,17.6,30.02,WSW,245,5.0,13.0,51,0.00,,---,0.00,VWS V14.01,2013-04-03 04:57:00,
2013-04-03 01:02:00,33.8,17.6,30.02,WSW,247,7.0,12.0,51,0.00,,---,0.00,VWS V14.01,2013-04-03 05:02:00,
2013-04-03 01:07:00,33.7,18.4,30.02,WSW,254,9.0,9.0,53,0.00,,---,0.00,VWS V14.01,2013-04-03 05:07:00,
2013-04-03 01:12:00,33.7,17.5,30.02,West,264,3.0,14.0,51,0.00,,---,0.00,VWS V14.01,2013-04-03 05:12:00,
2013-04-03 01:17:00,33.7,18.0,30.02,WSW,255,10.0,12.0,52,0.00,,---,0.00,VWS V14.01,2013-04-03 05:17:00,
2013-04-03 01:22:00,33.8,18.0,30.02,WSW,245,5.0,11.0,52,0.00,,---,0.00,VWS V14.01,2013-04-03 05:22:00,
2013-04-03 01:27:00,33.8,18.0,30.02,WSW,245,14.0,15.0,52,0.00,,---,0.00,VWS V14.01,2013-04-03 05:27:00,
2013-04-03 01:32:00,33.8,18.0,30.02,West,262,16.0,16.0,52,0.00,,---,0.00,VWS V14.01,2013-04-03 05:32:00,
2013-04-03 01:37:00,33.8,18.5,30.02,WSW,258,4.0,11.0,53,0.00,,---,0.00,VWS V14.01,2013-04-03 05:37:00,
2013-04-03 01:42:00,33.8,18.0,30.01,West,266,7.0,18.0,52,0.00,,---,0.00,VWS V14.01,2013-04-03 05:42:00,
2013-04-03 01:47:00,33.8,17.1,30.01,West,274,11.0,17.0,50,0.00,,---,0.00,VWS V14.01,2013-04-03 05:47:00,
2013-04-03 01:52:00,33.8,16.7,30.01,WNW,283,2.0,15.0,49,0.00,,---,0.00,VWS V14.01,2013-04-03 05:52:00,
2013-04-03 01:57:00,33.8,17.1,30.01,WSW,252,6.0,22.0,50,0.00,,---,0.00,VWS V14.01,2013-04-03 05:57:00,
2013-04-03 02:02:00,33.8,16.7,30.01,West,263,6.0,19.0,49,0.00,,---,0.00,VWS V14.01,2013-04-03 06:02:00,
2013-04-03 02:07:00,33.9,16.8,30.01,WSW,251,9.0,19.0,49,0.00,,---,0.00,VWS V14.01,2013-04-03 06:07:00,
2013-04-03 02:12:00,34.0,16.9,30.01,West,280,23.0,23.0,49,0.00,,---,0.00,VWS V14.01,2013-04-03 06:12:00,
2013-04-03 02:17:00,34.1,17.0,30.02,WSW,243,7.0,21.0,49,0.00,,---,0.00,VWS V14.01,2013-04-03 06:17:00,
2013-04-03 02:22:00,34.0,16.4,30.01,West,270,5.0,23.0,48,0.00,,---,0.00,VWS V14.01,2013-04-03 06:22:00,
2013-04-03 02:27:00,34.0,16.4,30.01,West,280,6.0,22.0,48,0.00,,---,0.00,VWS V14.01,2013-04-03 06:27:00,
2013-04-03 02:32:00,33.9,16.8,30.01,West,272,1.0,20.0,49,0.00,,---,0.00,VWS V14.01,2013-04-03 06:32:00,
2013-04-03 02:37:00,33.8,17.1,30.01,WSW,256,16.0,24.0,50,0.00,,---,0.00,VWS V14.01,2013-04-03 06:37:00,
2013-04-03 02:42:00,33.7,17.0,30.01,West,260,14.0,17.0,50,0.00,,---,0.00,VWS V14.01,2013-04-03 06:42:00,
2013-04-03 02:47:00,33.7,17.0,30.01,WSW,250,12.0,19.0,50,0.00,,---,0.00,VWS V14.01,2013-04-03 06:47:00,
2013-04-03 02:52:00,33.6,17.0,30.01,WSW,246,13.0,19.0,50,0.00,,---,0.00,VWS V14.01,2013-04-03 06:52:00,
2013-04-03 02:57:00,33.5,17.8,30.01,WSW,254,6.0,17.0,52,0.00,,---,0.00,VWS V14.01,2013-04-03 06:57:00,
2013-04-03 03:02:00,33.5,17.3,30.01,WSW,241,3.0,16.0,51,0.00,,---,0.00,VWS V14.01,2013-04-03 07:02:00,
2013-04-03 03:07:00,33.3,17.1,30.01,West,264,4.0,15.0,51,0.00,,---,0.00,VWS V14.01,2013-04-03 07:07:00,
2013-04-03 03:12:00,33.2,16.6,30.01,WSW,256,10.0,19.0,50,0.00,,---,0.00,VWS V14.01,2013-04-03 07:12:00,
2013-04-03 03:17:00,33.1,17.4,30.01,West,265,2.0,13.0,52,0.00,,---,0.00,VWS V14.01,2013-04-03 07:17:00,
2013-04-03 03:22:00,33.1,17.8,30.01,WNW,295,6.0,16.0,53,0.00,,---,0.00,VWS V14.01,2013-04-03 07:22:00,
2013-04-03 03:27:00,33.1,17.0,30.01,WSW,257,7.0,19.0,51,0.00,,---,0.00,VWS V14.01,2013-04-03 07:27:00,
2013-04-03 03:32:00,33.1,17.0,30.01,WSW,250,17.0,19.0,51,0.00,,---,0.00,VWS V14.01,2013-04-03 07:32:00,
2013-04-03 03:37:00,33.1,17.0,30.01,WNW,297,1.0,21.0,51,0.00,,---,0.00,VWS V14.01,2013-04-03 07:37:00,
2013-04-03 03:42:00,33.1,17.0,30.01,West,274,10.0,19.0,51,0.00,,---,0.00,VWS V14.01,2013-04-03 07:42:00,
2013-04-03 03:47:00,33.2,17.5,30.01,WSW,246,6.0,19.0,52,0.00,,---,0.00,VWS V14.01,2013-04-03 07:47:00,
2013-04-03 03:52:00,33.1,17.4,30.01,West,266,5.0,21.0,52,0.00,,---,0.00,VWS V14.01,2013-04-03 07:52:00,
2013-04-03 03:57:00,33.1,17.8,30.01,WSW,245,12.0,15.0,53,0.00,,---,0.00,VWS V14.01,2013-04-03 07:57:00,
2013-04-03 04:02:00,33.0,16.9,30.01,WSW,251,14.0,16.0,51,0.00,,---,0.00,VWS V14.01,2013-04-03 08:02:00,
2013-04-03 04:07:00,32.8,17.6,30.01,West,264,11.0,14.0,53,0.00,,---,0.00,VWS V14.01,2013-04-03 08:07:00,
2013-04-03 04:12:00,32.7,17.0,30.01,West,270,2.0,19.0,52,0.00,,---,0.00,VWS V14.01,2013-04-03 08:12:00,
2013-04-03 04:17:00,32.8,17.1,30.01,West,268,5.0,16.0,52,0.00,,---,0.00,VWS V14.01,2013-04-03 08:17:00,
2013-04-03 04:22:00,32.8,17.6,30.01,WSW,257,6.0,15.0,53,0.00,,---,0.00,VWS V14.01,2013-04-03 08:22:00,
2013-04-03 04:27:00,32.7,17.9,30.01,WSW,250,6.0,10.0,54,0.00,,---,0.00,VWS V14.01,2013-04-03 08:27:00,
2013-04-03 04:32:00,32.8,17.6,30.01,West,262,4.0,17.0,53,0.00,,---,0.00,VWS V14.01,2013-04-03 08:32:00,
2013-04-03 04:37:00,32.8,17.6,30.01,WSW,240,6.0,18.0,53,0.00,,---,0.00,VWS V14.01,2013-04-03 08:37:00,
2013-04-03 04:42:00,32.7,16.6,30.01,WSW,242,13.0,20.0,51,0.00,,---,0.00,VWS V14.01,2013-04-03 08:42:00,
2013-04-03 04:47:00,32.7,17.0,30.01,WSW,254,10.0,16.0,52,0.00,,---,0.00,VWS V14.01,2013-04-03 08:47:00,
2013-04-03 04:52:00,32.6,17.8,30.01,WSW,255,11.0,18.0,54,0.00,,---,0.00,VWS V14.01,2013-04-03 08:52:00,
2013-04-03 04:57:00,32.5,17.7,30.02,West,269,10.0,17.0,54,0.00,,---,0.00,VWS V14.01,2013-04-03 08:57:00,
2013-04-03 05:02:00,32.4,17.6,30.01,WSW,246,16.0,19.0,54,0.00,,---,0.00,VWS V14.01,2013-04-03 09:02:00,
2013-04-03 05:07:00,32.4,17.6,30.02,WSW,253,14.0,21.0,54,0.00,,---,0.00,VWS V14.01,2013-04-03 09:07:00,
2013-04-03 05:12:00,32.2,17.4,30.02,WSW,250,6.0,16.0,54,0.00,,---,0.00,VWS V14.01,2013-04-03 09:12:00,
2013-04-03 05:17:00,32.1,17.8,30.01,West,280,15.0,19.0,55,0.00,,---,0.00,VWS V14.01,2013-04-03 09:17:00,
2013-04-03 05:22:00,32.2,17.4,30.01,WSW,250,20.0,22.0,54,0.00,,---,0.00,VWS V14.01,2013-04-03 09:22:00,
2013-04-03 05:27:00,32.2,17.4,30.01,West,260,6.0,20.0,54,0.00,,---,0.00,VWS V14.01,2013-04-03 09:27:00,
2013-04-03 05:32:00,32.1,16.5,30.01,West,264,10.0,21.0,52,0.00,,---,0.00,VWS V14.01,2013-04-03 09:32:00,
2013-04-03 05:37:00,32.1,16.9,30.02,WSW,254,14.0,21.0,53,0.00,,---,0.00,VWS V14.01,2013-04-03 09:37:00,
2013-04-03 05:42:00,32.2,17.4,30.02,WSW,258,9.0,18.0,54,0.00,,---,0.00,VWS V14.01,2013-04-03 09:42:00,
2013-04-03 05:47:00,32.1,16.5,30.02,West,278,10.0,18.0,52,0.00,,---,0.00,VWS V14.01,2013-04-03 09:47:00,
2013-04-03 05:52:00,32.1,16.9,30.03,West,261,11.0,17.0,53,0.00,,---,0.00,VWS V14.01,2013-04-03 09:52:00,
2013-04-03 05:58:00,32.1,16.5,30.03,West,281,11.0,19.0,52,0.00,,---,0.00,VWS V14.01,2013-04-03 09:58:00,
2013-04-03 06:03:00,32.1,17.3,30.03,West,273,4.0,15.0,54,0.00,,---,0.00,VWS V14.01,2013-04-03 10:03:00,
2013-04-03 06:07:00,32.1,17.3,30.03,West,264,3.0,15.0,54,0.00,,---,0.00,VWS V14.01,2013-04-03 10:07:00,
2013-04-03 06:12:00,32.0,17.7,30.04,WSW,245,5.0,18.0,55,0.00,,---,0.00,VWS V14.01,2013-04-03 10:12:00,
2013-04-03 06:17:00,32.1,17.3,30.04,WSW,251,15.0,22.0,54,0.00,,---,0.00,VWS V14.01,2013-04-03 10:17:00,
2013-04-03 06:23:00,32.1,17.3,30.04,WSW,252,13.0,21.0,54,0.00,,---,0.00,VWS V14.01,2013-04-03 10:23:00,
2013-04-03 06:27:00,32.1,17.3,30.04,WNW,300,10.0,20.0,54,0.00,,---,0.00,VWS V14.01,2013-04-03 10:27:00,
2013-04-03 06:32:00,32.1,17.8,30.04,WSW,258,6.0,14.0,55,0.00,,---,0.00,VWS V14.01,2013-04-03 10:32:00,
2013-04-03 06:38:00,32.1,17.8,30.04,WNW,297,4.0,23.0,55,0.00,,---,0.00,VWS V14.01,2013-04-03 10:38:00,
2013-04-03 06:43:00,32.0,17.2,30.05,WSW,246,11.0,15.0,54,0.00,,---,0.00,VWS V14.01,2013-04-03 10:43:00,
2013-04-03 06:48:00,32.0,17.7,30.05,WSW,247,4.0,14.0,55,0.00,,---,0.00,VWS V14.01,2013-04-03 10:48:00,
2013-04-03 06:53:00,32.0,18.1,30.05,WSW,256,6.0,11.0,56,0.00,,---,0.00,VWS V14.01,2013-04-03 10:53:00,
2013-04-03 06:58:00,32.1,17.8,30.05,West,271,6.0,11.0,55,0.00,,---,0.00,VWS V14.01,2013-04-03 10:58:00,
2013-04-03 07:03:00,32.2,18.3,30.06,WSW,245,5.0,12.0,56,0.00,,---,0.00,VWS V14.01,2013-04-03 11:03:00,
2013-04-03 07:08:00,32.3,18.4,30.06,West,276,10.0,14.0,56,0.00,,---,0.00,VWS V14.01,2013-04-03 11:08:00,
2013-04-03 07:13:00,32.5,18.6,30.06,WSW,243,14.0,14.0,56,0.00,,---,0.00,VWS V14.01,2013-04-03 11:13:00,
2013-04-03 07:18:00,32.6,16.9,30.06,NW,304,1.0,21.0,52,0.00,,---,0.00,VWS V14.01,2013-04-03 11:18:00,
2013-04-03 07:23:00,32.8,18.0,30.05,WSW,253,12.0,18.0,54,0.00,,---,0.00,VWS V14.01,2013-04-03 11:23:00,
2013-04-03 07:28:00,32.9,18.5,30.06,West,277,4.0,15.0,55,0.00,,---,0.00,VWS V14.01,2013-04-03 11:28:00,
2013-04-03 07:33:00,33.1,17.8,30.06,WNW,287,9.0,20.0,53,0.00,,---,0.00,VWS V14.01,2013-04-03 11:33:00,
2013-04-03 07:38:00,33.2,18.4,30.06,West,262,8.0,18.0,54,0.00,,---,0.00,VWS V14.01,2013-04-03 11:38:00,
2013-04-03 07:43:00,33.3,17.6,30.06,West,279,6.0,23.0,52,0.00,,---,0.00,VWS V14.01,2013-04-03 11:43:00,
2013-04-03 07:48:00,33.5,17.8,30.06,West,272,11.0,20.0,52,0.00,,---,0.00,VWS V14.01,2013-04-03 11:48:00,
2013-04-03 07:53:00,33.5,17.8,30.05,West,260,12.0,24.0,52,0.00,,---,0.00,VWS V14.01,2013-04-03 11:53:00,
2013-04-03 07:58:00,33.7,18.0,30.06,WSW,258,8.0,24.0,52,0.00,,---,0.00,VWS V14.01,2013-04-03 11:58:00,
2013-04-03 08:03:00,33.8,18.0,30.06,West,278,11.0,20.0,52,0.00,,---,0.00,VWS V14.01,2013-04-03 12:03:00,
2013-04-03 08:08:00,34.1,18.8,30.07,WSW,258,1.0,17.0,53,0.00,,---,0.00,VWS V14.01,2013-04-03 12:08:00,
2013-04-03 08:13:00,34.2,18.0,30.07,WNW,290,11.0,26.0,51,0.00,,---,0.00,VWS V14.01,2013-04-03 12:13:00,
2013-04-03 08:18:00,34.2,18.4,30.07,WSW,251,6.0,19.0,52,0.00,,---,0.00,VWS V14.01,2013-04-03 12:18:00,
2013-04-03 08:23:00,34.4,18.2,30.07,WSW,253,2.0,14.0,51,0.00,,---,0.00,VWS V14.01,2013-04-03 12:23:00,
2013-04-03 08:28:00,34.4,18.2,30.07,West,268,5.0,24.0,51,0.00,,---,0.00,VWS V14.01,2013-04-03 12:28:00,
2013-04-03 08:33:00,34.6,17.9,30.07,WSW,253,16.0,23.0,50,0.00,,---,0.00,VWS V14.01,2013-04-03 12:33:00,
2013-04-03 08:38:00,34.5,17.3,30.07,WNW,286,12.0,28.0,49,0.00,,---,0.00,VWS V14.01,2013-04-03 12:38:00,
2013-04-03 08:43:00,34.6,17.9,30.07,West,270,5.0,20.0,50,0.00,,---,0.00,VWS V14.01,2013-04-03 12:43:00,
2013-04-03 08:48:00,34.8,17.6,30.06,WNW,303,5.0,24.0,49,0.00,,---,0.00,VWS V14.01,2013-04-03 12:48:00,
2013-04-03 08:53:00,34.9,18.2,30.06,West,268,6.0,17.0,50,0.00,,---,0.00,VWS V14.01,2013-04-03 12:53:00,
2013-04-03 08:58:00,35.1,17.9,30.06,WSW,251,12.0,21.0,49,0.00,,---,0.00,VWS V14.01,2013-04-03 12:58:00,
2013-04-03 09:03:00,35.1,17.9,30.06,West,281,7.0,20.0,49,0.00,,---,0.00,VWS V14.01,2013-04-03 13:03:00,
2013-04-03 09:08:00,35.2,17.5,30.06,West,260,12.0,25.0,48,0.00,,---,0.00,VWS V14.01,2013-04-03 13:08:00,
2013-04-03 09:13:00,35.1,16.9,30.06,WSW,255,13.0,28.0,47,0.00,,---,0.00,VWS V14.01,2013-04-03 13:13:00,
2013-04-03 09:18:00,35.2,17.0,30.06,WNW,282,9.0,22.0,47,0.00,,---,0.00,VWS V14.01,2013-04-03 13:18:00,
2013-04-03 09:23:00,35.6,17.9,30.06,West,262,14.0,21.0,48,0.00,,---,0.00,VWS V14.01,2013-04-03 13:23:00,
2013-04-03 09:28:00,35.6,17.4,30.06,West,261,22.0,29.0,47,0.00,,---,0.00,VWS V14.01,2013-04-03 13:28:00,
2013-04-03 09:33:00,35.8,18.0,30.06,SW,229,18.0,28.0,48,0.00,,---,0.00,VWS V14.01,2013-04-03 13:33:00,
2013-04-03 09:38:00,36.1,17.3,30.06,WNW,297,9.0,24.0,46,0.00,,---,0.00,VWS V14.01,2013-04-03 13:38:00,
2013-04-03 09:43:00,36.4,18.1,30.05,West,267,11.0,18.0,47,0.00,,---,0.00,VWS V14.01,2013-04-03 13:43:00,
2013-04-03 09:48:00,36.6,17.3,30.05,West,268,10.0,24.0,45,0.00,,---,0.00,VWS V14.01,2013-04-03 13:48:00,
2013-04-03 09:53:00,36.5,16.7,30.05,West,266,17.0,33.0,44,0.00,,---,0.00,VWS V14.01,2013-04-03 13:53:00,
2013-04-03 09:58:00,36.6,16.8,30.05,WNW,301,13.0,23.0,44,0.00,,---,0.00,VWS V14.01,2013-04-03 13:58:00,
2013-04-03 10:03:00,36.8,15.9,30.05,WNW,283,10.0,17.0,42,0.00,,---,0.00,VWS V14.01,2013-04-03 14:03:00,
2013-04-03 10:08:00,36.9,17.6,30.05,WSW,256,12.0,18.0,45,0.00,,---,0.00,VWS V14.01,2013-04-03 14:08:00,
2013-04-03 10:13:00,37.2,16.2,30.05,West,265,12.0,19.0,42,0.00,,---,0.00,VWS V14.01,2013-04-03 14:13:00,
2013-04-03 10:18:00,37.2,16.2,30.05,WSW,253,17.0,24.0,42,0.00,,---,0.00,VWS V14.01,2013-04-03 14:18:00,
2013-04-03 10:23:00,37.5,18.1,30.05,West,274,12.0,16.0,45,0.00,,---,0.00,VWS V14.01,2013-04-03 14:23:00,
2013-04-03 10:28:00,37.8,17.9,30.05,West,278,7.0,26.0,44,0.00,,---,0.00,VWS V14.01,2013-04-03 14:28:00,
2013-04-03 10:33:00,37.7,16.1,30.05,West,272,20.0,24.0,41,0.00,,---,0.00,VWS V14.01,2013-04-03 14:33:00,
2013-04-03 10:38:00,37.9,16.9,30.05,West,280,15.0,21.0,42,0.00,,---,0.00,VWS V14.01,2013-04-03 14:38:00,
2013-04-03 10:43:00,38.3,17.8,30.05,WSW,245,13.0,19.0,43,0.00,,---,0.00,VWS V14.01,2013-04-03 14:43:00,
2013-04-03 10:48:00,38.3,16.1,30.05,West,273,12.0,22.0,40,0.00,,---,0.00,VWS V14.01,2013-04-03 14:48:00,
2013-04-03 10:53:00,38.5,16.9,30.05,WNW,301,12.0,20.0,41,0.00,,---,0.00,VWS V14.01,2013-04-03 14:53:00,
2013-04-03 10:58:00,38.6,16.4,30.04,WNW,282,15.0,21.0,40,0.00,,---,0.00,VWS V14.01,2013-04-03 14:58:00,
2013-04-03 11:03:00,38.6,15.8,30.04,West,278,4.0,21.0,39,0.00,,---,0.00,VWS V14.01,2013-04-03 15:03:00,
2013-04-03 11:08:00,39.0,17.3,30.04,West,265,2.0,21.0,41,0.00,,---,0.00,VWS V14.01,2013-04-03 15:08:00,
2013-04-03 11:13:00,38.9,16.1,30.04,West,276,14.0,21.0,39,0.00,,---,0.00,VWS V14.01,2013-04-03 15:13:00,
2013-04-03 11:18:00,38.8,15.4,30.04,West,267,20.0,24.0,38,0.00,,---,0.00,VWS V14.01,2013-04-03 15:18:00,
2013-04-03 11:23:00,38.8,16.0,30.04,West,271,2.0,19.0,39,0.00,,---,0.00,VWS V14.01,2013-04-03 15:23:00,
2013-04-03 11:28:00,39.2,15.7,30.04,WNW,293,16.0,23.0,38,0.00,,---,0.00,VWS V14.01,2013-04-03 15:28:00,
2013-04-03 11:33:00,39.2,15.7,30.04,WNW,285,2.0,28.0,38,0.00,,---,0.00,VWS V14.01,2013-04-03 15:33:00,
2013-04-03 11:38:00,39.6,16.7,30.03,West,281,4.0,25.0,39,0.00,,---,0.00,VWS V14.01,2013-04-03 15:38:00,
2013-04-03 11:43:00,40.1,17.1,30.03,West,261,13.0,26.0,39,0.00,,---,0.00,VWS V14.01,2013-04-03 15:43:00,
2013-04-03 11:48:00,40.1,15.9,30.03,WNW,297,10.0,26.0,37,0.00,,---,0.00,VWS V14.01,2013-04-03 15:48:00,
2013-04-03 11:54:00,40.1,17.1,30.03,SW,229,14.0,21.0,39,0.00,,---,0.00,VWS V14.01,2013-04-03 15:54:00,
2013-04-03 11:59:00,40.2,17.2,30.03,WSW,253,17.0,24.0,39,0.00,,---,0.00,VWS V14.01,2013-04-03 15:59:00,
2013-04-03 12:04:00,40.2,17.2,30.03,West,281,11.0,33.0,39,0.00,,---,0.00,VWS V14.01,2013-04-03 16:04:00,
2013-04-03 12:09:00,40.2,16.6,30.03,West,272,3.0,20.0,38,0.00,,---,0.00,VWS V14.01,2013-04-03 16:09:00,
2013-04-03 12:14:00,40.4,16.2,30.03,WNW,283,3.0,20.0,37,0.00,,---,0.00,VWS V14.01,2013-04-03 16:14:00,
2013-04-03 12:19:00,40.9,16.0,30.02,WNW,290,6.0,18.0,36,0.00,,---,0.00,VWS V14.01,2013-04-03 16:19:00,
2013-04-03 12:24:00,41.0,16.1,30.02,WSW,253,13.0,19.0,36,0.00,,---,0.00,VWS V14.01,2013-04-03 16:24:00,
2013-04-03 12:29:00,41.2,16.3,30.02,West,279,10.0,23.0,36,0.00,,---,0.00,VWS V14.01,2013-04-03 16:29:00,
2013-04-03 12:34:00,41.5,17.2,30.02,West,272,5.0,24.0,37,0.00,,---,0.00,VWS V14.01,2013-04-03 16:34:00,
2013-04-03 12:40:00,41.5,15.2,30.02,WSW,257,5.0,26.0,34,0.00,,---,0.00,VWS V14.01,2013-04-03 16:40:00,
2013-04-03 12:45:00,41.1,15.6,30.02,West,274,11.0,22.0,35,0.00,,---,0.00,VWS V14.01,2013-04-03 16:45:00,
2013-04-03 12:50:00,41.3,15.7,30.02,WSW,253,12.0,20.0,35,0.00,,---,0.00,VWS V14.01,2013-04-03 16:50:00,
2013-04-03 12:55:00,41.5,14.6,30.01,WSW,251,13.0,22.0,33,0.00,,---,0.00,VWS V14.01,2013-04-03 16:55:00,
2013-04-03 13:00:00,42.1,19.0,30.02,West,266,11.0,19.0,39,0.00,,---,0.00,VWS V14.01,2013-04-03 17:00:00,
2013-04-03 13:05:00,42.7,17.6,30.02,NW,305,4.0,24.0,36,0.00,,---,0.00,VWS V14.01,2013-04-03 17:05:00,
2013-04-03 13:10:00,42.6,16.9,30.02,WSW,256,11.0,22.0,35,0.00,,---,0.00,VWS V14.01,2013-04-03 17:10:00,
2013-04-03 13:15:00,42.5,16.8,30.02,West,262,15.0,22.0,35,0.00,,---,0.00,VWS V14.01,2013-04-03 17:15:00,
2013-04-03 13:20:00,42.8,16.4,30.02,WSW,254,4.0,22.0,34,0.00,,---,0.00,VWS V14.01,2013-04-03 17:20:00,
2013-04-03 13:25:00,43.1,18.0,30.02,NW,307,3.0,21.0,36,0.00,,---,0.00,VWS V14.01,2013-04-03 17:25:00,
2013-04-03 13:30:00,43.4,16.2,30.02,WNW,301,7.0,21.0,33,0.00,,---,0.00,VWS V14.01,2013-04-03 17:30:00,
2013-04-03 13:35:00,43.1,16.7,30.02,West,262,9.0,24.0,34,0.00,,---,0.00,VWS V14.01,2013-04-03 17:35:00,
2013-04-03 13:40:00,43.0,15.9,30.02,West,277,6.0,26.0,33,0.00,,---,0.00,VWS V14.01,2013-04-03 17:40:00,
2013-04-03 13:45:00,43.3,16.8,30.02,WNW,285,24.0,24.0,34,0.00,,---,0.00,VWS V14.01,2013-04-03 17:45:00,
2013-04-03 13:50:00,43.3,16.1,30.02,WNW,286,11.0,21.0,33,0.00,,---,0.00,VWS V14.01,2013-04-03 17:50:00,
2013-04-03 13:55:00,43.7,17.9,30.01,West,259,13.0,21.0,35,0.00,,---,0.00,VWS V14.01,2013-04-03 17:55:00,
2013-04-03 14:00:00,44.0,18.8,30.01,SSW,196,10.0,21.0,36,0.00,,---,0.00,VWS V14.01,2013-04-03 18:00:00,
2013-04-03 14:05:00,44.1,16.1,30.01,WSW,251,10.0,22.0,32,0.00,,---,0.00,VWS V14.01,2013-04-03 18:05:00,
2013-04-03 14:10:00,43.8,16.6,30.02,WSW,240,7.0,23.0,33,0.00,,---,0.00,VWS V14.01,2013-04-03 18:10:00,
2013-04-03 14:15:00,43.8,18.0,30.02,West,277,14.0,22.0,35,0.00,,---,0.00,VWS V14.01,2013-04-03 18:15:00,
2013-04-03 14:20:00,43.8,16.6,30.01,WSW,239,17.0,20.0,33,0.00,,---,0.00,VWS V14.01,2013-04-03 18:20:00,
2013-04-03 14:25:00,43.8,16.6,30.01,West,268,3.0,3.0,33,0.00,,---,0.00,VWS V14.01,2013-04-03 18:25:00,
2013-04-03 14:30:00,44.2,16.9,30.01,WSW,253,12.0,24.0,33,0.00,,---,0.00,VWS V14.01,2013-04-03 18:30:00,
2013-04-03 14:35:00,44.4,14.9,30.01,WSW,256,12.0,16.0,30,0.00,,---,0.00,VWS V14.01,2013-04-03 18:35:00,
2013-04-03 14:40:00,44.6,17.3,30.01,West,266,9.0,13.0,33,0.00,,---,0.00,VWS V14.01,2013-04-03 18:40:00,
2013-04-03 14:45:00,44.4,17.8,30.01,SW,234,10.0,25.0,34,0.00,,---,0.00,VWS V14.01,2013-04-03 18:45:00,
2013-04-03 14:50:00,44.4,16.4,30.00,WSW,257,22.0,22.0,32,0.00,,---,0.00,VWS V14.01,2013-04-03 18:50:00,
2013-04-03 14:55:00,44.4,15.7,30.01,WNW,291,9.0,24.0,31,0.00,,---,0.00,VWS V14.01,2013-04-03 18:55:00,
2013-04-03 15:00:00,44.3,16.3,30.00,WNW,299,5.0,11.0,32,0.00,,---,0.00,VWS V14.01,2013-04-03 19:00:00,
2013-04-03 15:05:00,44.6,15.9,30.00,WNW,298,7.0,18.0,31,0.00,,---,0.00,VWS V14.01,2013-04-03 19:05:00,
2013-04-03 15:10:00,44.7,16.7,30.00,West,261,3.0,4.0,32,0.00,,---,0.00,VWS V14.01,2013-04-03 19:10:00,
2013-04-03 15:15:00,44.7,18.1,30.00,SW,226,12.0,14.0,34,0.00,,---,0.00,VWS V14.01,2013-04-03 19:15:00,
2013-04-03 15:20:00,44.8,16.8,29.99,West,280,6.0,11.0,32,0.00,,---,0.00,VWS V14.01,2013-04-03 19:20:00,
2013-04-03 15:25:00,45.0,16.9,30.00,WSW,257,9.0,12.0,32,0.00,,---,0.00,VWS V14.01,2013-04-03 19:25:00,
2013-04-03 15:30:00,45.0,16.2,29.99,West,269,12.0,19.0,31,0.00,,---,0.00,VWS V14.01,2013-04-03 19:30:00,
2013-04-03 15:35:00,45.1,16.3,30.00,WSW,256,12.0,12.0,31,0.00,,---,0.00,VWS V14.01,2013-04-03 19:35:00,
2013-04-03 15:40:00,44.8,16.0,30.00,WNW,289,13.0,17.0,31,0.00,,---,0.00,VWS V14.01,2013-04-03 19:40:00,
2013-04-03 15:45:00,44.8,16.8,30.00,WSW,258,5.0,12.0,32,0.00,,---,0.00,VWS V14.01,2013-04-03 19:45:00,
2013-04-03 15:50:00,45.0,18.3,30.00,West,267,7.0,12.0,34,0.00,,---,0.00,VWS V14.01,2013-04-03 19:50:00,
2013-04-03 15:55:00,45.5,19.5,30.00,West,276,9.0,9.0,35,0.00,,---,0.00,VWS V14.01,2013-04-03 19:55:00,
2013-04-03 16:00:00,45.7,16.8,30.00,WNW,284,5.0,12.0,31,0.00,,---,0.00,VWS V14.01,2013-04-03 20:00:00,
2013-04-03 16:05:00,45.4,18.0,30.00,West,260,16.0,16.0,33,0.00,,---,0.00,VWS V14.01,2013-04-03 20:05:00,
2013-04-03 16:10:00,45.1,16.3,30.00,WNW,301,7.0,14.0,31,0.00,,---,0.00,VWS V14.01,2013-04-03 20:10:00,
2013-04-03 16:15:00,45.2,17.8,30.00,WSW,245,6.0,16.0,33,0.00,,---,0.00,VWS V14.01,2013-04-03 20:15:00,
2013-04-03 16:20:00,45.4,17.3,30.00,West,270,6.0,13.0,32,0.00,,---,0.00,VWS V14.01,2013-04-03 20:20:00,
2013-04-03 16:25:00,45.4,17.3,30.00,WNW,288,2.0,12.0,32,0.00,,---,0.00,VWS V14.01,2013-04-03 20:25:00,
2013-04-03 16:30:00,45.3,18.6,30.00,WSW,257,6.0,11.0,34,0.00,,---,0.00,VWS V14.01,2013-04-03 20:30:00,
2013-04-03 16:35:00,45.1,17.0,30.00,SW,225,6.0,14.0,32,0.00,,---,0.00,VWS V14.01,2013-04-03 20:35:00,
2013-04-03 16:40:00,44.9,15.4,29.99,WNW,287,13.0,21.0,30,0.00,,---,0.00,VWS V14.01,2013-04-03 20:40:00,
2013-04-03 16:45:00,45.0,16.2,29.99,West,276,10.0,10.0,31,0.00,,---,0.00,VWS V14.01,2013-04-03 20:45:00,
2013-04-03 16:51:00,44.9,17.6,29.99,WNW,291,14.0,14.0,33,0.00,,---,0.00,VWS V14.01,2013-04-03 20:51:00,
2013-04-03 16:56:00,45.1,17.7,29.99,WNW,289,12.0,16.0,33,0.00,,---,0.00,VWS V14.01,2013-04-03 20:56:00,
2013-04-03 17:01:00,45.0,16.2,29.99,NW,305,3.0,14.0,31,0.00,,---,0.00,VWS V14.01,2013-04-03 21:01:00,
2013-04-03 17:06:00,44.8,17.5,29.99,WSW,257,7.0,11.0,33,0.00,,---,0.00,VWS V14.01,2013-04-03 21:06:00,
2013-04-03 17:11:00,44.9,15.4,30.00,West,281,9.0,15.0,30,0.00,,---,0.00,VWS V14.01,2013-04-03 21:11:00,
2013-04-03 17:16:00,44.9,16.8,30.00,WNW,285,1.0,9.0,32,0.00,,---,0.00,VWS V14.01,2013-04-03 21:16:00,
2013-04-03 17:21:00,45.1,18.4,30.00,WNW,288,6.0,9.0,34,0.00,,---,0.00,VWS V14.01,2013-04-03 21:21:00,
2013-04-03 17:26:00,45.1,17.0,30.00,NW,324,4.0,17.0,32,0.00,,---,0.00,VWS V14.01,2013-04-03 21:26:00,
2013-04-03 17:32:00,44.7,15.2,30.00,West,274,16.0,20.0,30,0.00,,---,0.00,VWS V14.01,2013-04-03 21:32:00,
2013-04-03 17:37:00,44.5,15.8,30.00,West,264,20.0,21.0,31,0.00,,---,0.00,VWS V14.01,2013-04-03 21:37:00,
2013-04-03 17:42:00,44.4,16.4,30.00,West,270,14.0,19.0,32,0.00,,---,0.00,VWS V14.01,2013-04-03 21:42:00,
2013-04-03 17:47:00,44.5,15.8,30.01,WSW,250,14.0,20.0,31,0.00,,---,0.00,VWS V14.01,2013-04-03 21:47:00,
2013-04-03 17:52:00,44.4,15.7,30.01,West,274,9.0,21.0,31,0.00,,---,0.00,VWS V14.01,2013-04-03 21:52:00,
2013-04-03 17:57:00,44.3,16.3,30.01,WSW,258,7.0,16.0,32,0.00,,---,0.00,VWS V14.01,2013-04-03 21:57:00,
2013-04-03 18:02:00,44.1,16.1,30.02,WNW,288,13.0,15.0,32,0.00,,---,0.00,VWS V14.01,2013-04-03 22:02:00,
2013-04-03 18:07:00,44.0,14.6,30.02,West,266,13.0,19.0,30,0.00,,---,0.00,VWS V14.01,2013-04-03 22:07:00,
2013-04-03 18:12:00,43.9,15.2,30.02,West,269,10.0,15.0,31,0.00,,---,0.00,VWS V14.01,2013-04-03 22:12:00,
2013-04-03 18:17:00,43.8,16.6,30.03,West,262,16.0,16.0,33,0.00,,---,0.00,VWS V14.01,2013-04-03 22:17:00,
2013-04-03 18:22:00,43.6,16.4,30.03,West,274,14.0,14.0,33,0.00,,---,0.00,VWS V14.01,2013-04-03 22:22:00,
2013-04-03 18:27:00,43.3,18.2,30.03,West,265,13.0,18.0,36,0.00,,---,0.00,VWS V14.01,2013-04-03 22:27:00,
2013-04-03 18:32:00,43.0,15.9,30.03,West,265,11.0,18.0,33,0.00,,---,0.00,VWS V14.01,2013-04-03 22:32:00,
2013-04-03 18:37:00,42.8,16.4,30.03,WSW,256,9.0,18.0,34,0.00,,---,0.00,VWS V14.01,2013-04-03 22:37:00,
2013-04-03 18:42:00,42.6,15.5,30.04,West,277,7.0,26.0,33,0.00,,---,0.00,VWS V14.01,2013-04-03 22:42:00,
2013-04-03 18:47:00,42.4,15.4,30.04,SW,230,18.0,18.0,33,0.00,,---,0.00,VWS V14.01,2013-04-03 22:47:00,
2013-04-03 18:52:00,42.2,16.5,30.05,West,274,3.0,20.0,35,0.00,,---,0.00,VWS V14.01,2013-04-03 22:52:00,
2013-04-03 18:57:00,42.0,16.4,30.05,West,270,12.0,22.0,35,0.00,,---,0.00,VWS V14.01,2013-04-03 22:57:00,
2013-04-03 19:02:00,41.8,15.5,30.05,West,278,19.0,22.0,34,0.00,,---,0.00,VWS V14.01,2013-04-03 23:02:00,
2013-04-03 19:07:00,41.6,16.0,30.06,WSW,258,17.0,22.0,35,0.00,,---,0.00,VWS V14.01,2013-04-03 23:07:00,
2013-04-03 19:12:00,41.4,15.8,30.06,NW,304,10.0,22.0,35,0.00,,---,0.00,VWS V14.01,2013-04-03 23:12:00,
2013-04-03 19:17:00,41.3,17.0,30.06,West,267,15.0,18.0,37,0.00,,---,0.00,VWS V14.01,2013-04-03 23:17:00,
2013-04-03 19:22:00,41.1,16.8,30.07,West,274,12.0,13.0,37,0.00,,---,0.00,VWS V14.01,2013-04-03 23:22:00,
2013-04-03 19:27:00,41.0,16.1,30.07,WNW,290,3.0,19.0,36,0.00,,---,0.00,VWS V14.01,2013-04-03 23:27:00,
2013-04-03 19:32:00,40.9,16.6,30.08,WNW,287,1.0,22.0,37,0.00,,---,0.00,VWS V14.01,2013-04-03 23:32:00,
2013-04-03 19:37:00,40.7,17.1,30.08,West,279,6.0,23.0,38,0.00,,---,0.00,VWS V14.01,2013-04-03 23:37:00,
2013-04-03 19:42:00,40.5,16.9,30.08,West,276,2.0,13.0,38,0.00,,---,0.00,VWS V14.01,2013-04-03 23:42:00,
2013-04-03 19:47:00,40.3,17.3,30.08,WNW,287,11.0,18.0,39,0.00,,---,0.00,VWS V14.01,2013-04-03 23:47:00,
2013-04-03 19:52:00,40.1,16.5,30.09,WNW,298,7.0,17.0,38,0.00,,---,0.00,VWS V14.01,2013-04-03 23:52:00,
2013-04-03 19:57:00,40.0,16.5,30.09,West,277,2.0,17.0,38,0.00,,---,0.00,VWS V14.01,2013-04-03 23:57:00,
2013-04-03 20:02:00,39.9,15.8,30.09,West,265,14.0,16.0,37,0.00,,---,0.00,VWS V14.01,2013-04-04 00:02:00,
2013-04-03 20:07:00,39.8,16.9,30.10,WNW,288,14.0,17.0,39,0.00,,---,0.00,VWS V14.01,2013-04-04 00:07:00,
2013-04-03 20:12:00,39.6,16.1,30.10,WNW,288,5.0,24.0,38,0.00,,---,0.00,VWS V14.01,2013-04-04 00:12:00,
2013-04-03 20:17:00,39.6,16.7,30.10,NW,316,4.0,17.0,39,0.00,,---,0.00,VWS V14.01,2013-04-04 00:17:00,
2013-04-03 20:22:00,39.5,16.0,30.10,NW,304,3.0,19.0,38,0.00,,---,0.00,VWS V14.01,2013-04-04 00:22:00,
2013-04-03 20:27:00,39.4,16.5,30.11,West,277,6.0,18.0,39,0.00,,---,0.00,VWS V14.01,2013-04-04 00:27:00,
2013-04-03 20:32:00,39.2,16.9,30.12,WNW,301,1.0,13.0,40,0.00,,---,0.00,VWS V14.01,2013-04-04 00:32:00,
2013-04-03 20:37:00,39.1,17.4,30.12,West,261,9.0,15.0,41,0.00,,---,0.00,VWS V14.01,2013-04-04 00:37:00,
2013-04-03 20:43:00,39.0,16.7,30.12,WNW,299,6.0,13.0,40,0.00,,---,0.00,VWS V14.01,2013-04-04 00:43:00,
2013-04-03 20:48:00,38.9,16.1,30.13,WSW,258,8.0,23.0,39,0.00,,---,0.00,VWS V14.01,2013-04-04 00:48:00,
2013-04-03 20:53:00,38.8,16.0,30.13,WNW,291,6.0,16.0,39,0.00,,---,0.00,VWS V14.01,2013-04-04 00:53:00,
2013-04-03 20:58:00,38.8,16.6,30.13,WNW,292,9.0,22.0,40,0.00,,---,0.00,VWS V14.01,2013-04-04 00:58:00,
2013-04-03 21:03:00,38.6,15.2,30.14,North,2,5.0,23.0,38,0.00,,---,0.00,VWS V14.01,2013-04-04 01:03:00,
2013-04-03 21:08:00,38.5,16.9,30.14,WNW,295,7.0,13.0,41,0.00,,---,0.00,VWS V14.01,2013-04-04 01:08:00,
2013-04-03 21:13:00,38.4,17.9,30.15,West,281,9.0,14.0,43,0.00,,---,0.00,VWS V14.01,2013-04-04 01:13:00,
2013-04-03 21:18:00,38.2,15.4,30.15,West,270,5.0,24.0,39,0.00,,---,0.00,VWS V14.01,2013-04-04 01:18:00,
2013-04-03 21:23:00,38.1,16.5,30.15,NW,312,11.0,21.0,41,0.00,,---,0.00,VWS V14.01,2013-04-04 01:23:00,
2013-04-03 21:28:00,38.0,17.0,30.15,WSW,250,6.0,16.0,42,0.00,,---,0.00,VWS V14.01,2013-04-04 01:28:00,
2013-04-03 21:33:00,37.8,16.8,30.15,West,272,3.0,27.0,42,0.00,,---,0.00,VWS V14.01,2013-04-04 01:33:00,
2013-04-03 21:38:00,37.7,16.1,30.15,WNW,289,14.0,20.0,41,0.00,,---,0.00,VWS V14.01,2013-04-04 01:38:00,
2013-04-03 21:43:00,37.6,16.6,30.16,West,281,4.0,20.0,42,0.00,,---,0.00,VWS V14.01,2013-04-04 01:43:00,
2013-04-03 21:48:00,37.5,15.4,30.16,West,270,2.0,18.0,40,0.00,,---,0.00,VWS V14.01,2013-04-04 01:48:00,
2013-04-03 21:53:00,37.4,16.4,30.16,West,270,0.0,21.0,42,0.00,,---,0.00,VWS V14.01,2013-04-04 01:53:00,
2013-04-03 21:58:00,37.2,15.7,30.16,West,279,7.0,17.0,41,0.00,,---,0.00,VWS V14.01,2013-04-04 01:58:00,
2013-04-03 22:03:00,37.1,17.7,30.16,WNW,303,6.0,11.0,45,0.00,,---,0.00,VWS V14.01,2013-04-04 02:03:00,
2013-04-03 22:08:00,37.0,18.2,30.16,West,270,6.0,13.0,46,0.00,,---,0.00,VWS V14.01,2013-04-04 02:08:00,
2013-04-03 22:13:00,36.8,17.5,30.17,West,273,4.0,12.0,45,0.00,,---,0.00,VWS V14.01,2013-04-04 02:13:00,
2013-04-03 22:18:00,36.6,18.3,30.17,West,273,7.0,14.0,47,0.00,,---,0.00,VWS V14.01,2013-04-04 02:18:00,
2013-04-03 22:23:00,36.6,18.3,30.17,West,270,6.0,15.0,47,0.00,,---,0.00,VWS V14.01,2013-04-04 02:23:00,
2013-04-03 22:28:00,36.5,17.7,30.17,West,278,13.0,17.0,46,0.00,,---,0.00,VWS V14.01,2013-04-04 02:28:00,
2013-04-03 22:33:00,36.4,16.6,30.17,WSW,249,7.0,18.0,44,0.00,,---,0.00,VWS V14.01,2013-04-04 02:33:00,
2013-04-03 22:38:00,36.3,17.0,30.18,West,281,7.0,21.0,45,0.00,,---,0.00,VWS V14.01,2013-04-04 02:38:00,
2013-04-03 22:43:00,36.3,17.0,30.18,West,260,6.0,17.0,45,0.00,,---,0.00,VWS V14.01,2013-04-04 02:43:00,
2013-04-03 22:48:00,36.1,17.8,30.18,West,275,11.0,15.0,47,0.00,,---,0.00,VWS V14.01,2013-04-04 02:48:00,
2013-04-03 22:53:00,36.0,16.2,30.18,West,281,17.0,22.0,44,0.00,,---,0.00,VWS V14.01,2013-04-04 02:53:00,
2013-04-03 22:58:00,35.9,17.1,30.18,West,281,2.0,20.0,46,0.00,,---,0.00,VWS V14.01,2013-04-04 02:58:00,
2013-04-03 23:03:00,35.8,16.5,30.18,WNW,291,12.0,22.0,45,0.00,,---,0.00,VWS V14.01,2013-04-04 03:03:00,
2013-04-03 23:08:00,35.7,17.0,30.18,West,270,8.0,18.0,46,0.00,,---,0.00,VWS V14.01,2013-04-04 03:08:00,
2013-04-03 23:13:00,35.6,17.9,30.19,West,281,10.0,15.0,48,0.00,,---,0.00,VWS V14.01,2013-04-04 03:13:00,
2013-04-03 23:18:00,35.5,17.3,30.19,West,263,6.0,19.0,47,0.00,,---,0.00,VWS V14.01,2013-04-04 03:18:00,
2013-04-03 23:23:00,35.4,16.7,30.19,WNW,294,6.0,20.0,46,0.00,,---,0.00,VWS V14.01,2013-04-04 03:23:00,
2013-04-03 23:28:00,35.3,16.6,30.19,West,269,4.0,19.0,46,0.00,,---,0.00,VWS V14.01,2013-04-04 03:28:00,
2013-04-03 23:33:00,35.2,17.5,30.19,WNW,289,11.0,19.0,48,0.00,,---,0.00,VWS V14.01,2013-04-04 03:33:00,
2013-04-03 23:38:00,35.1,16.9,30.19,West,267,11.0,19.0,47,0.00,,---,0.00,VWS V14.01,2013-04-04 03:38:00,
2013-04-03 23:43:00,35.0,17.3,30.20,NW,318,16.0,22.0,48,0.00,,---,0.00,VWS V14.01,2013-04-04 03:43:00,
2013-04-03 23:48:00,35.0,17.3,30.20,WNW,285,6.0,15.0,48,0.00,,---,0.00,VWS V14.01,2013-04-04 03:48:00,
2013-04-03 23:53:00,34.9,17.2,30.20,WNW,291,5.0,20.0,48,0.00,,---,0.00,VWS V14.01,2013-04-04 03:53:00,
2013-04-03 23:58:00,34.8,17.1,30.20,WNW,291,10.0,19.0,48,0.00,,---,0.00,VWS V14.01,2013-04-04 03:58:00,